CheckWX is a tool to help pilots better visualize weather data.  It is not intended as a substitute for an official pre-flight weather briefing.

12:58:49 UTC

GCLP TAF
Gran Canaria Airport
Gran Canaria Island, Spain
TAF GCLP 260800Z 2609/2709 19005KT 9999 FEW025 TX21/2614Z TN15/2706Z PROB30 TEMPO 2609/2613 01010KT PROB40 TEMPO 2612/2618 SHRA SCT025TCU BECMG 2619/2621 31010KT

Mar-26@
09:00 UTC

Mar-26 @ 09:00 UTC

Mar-26@
19:00 UTC

Mar-26 @ 19:00 UTC

TAF GCLP 260800Z 2609/2709 19005KT 9999 FEW025 TX21/2614Z TN15/2706Z
Wind
  • 190° at 5 KTS
Cloud Levels
  • Few at 2,500' AGL

Mar-26@
09:00 UTC

Mar-26 @ 09:00 UTC

Mar-26@
13:00 UTC

Mar-26 @ 13:00 UTC

PROB30 TEMPO 2609/2613 01010KT

Temporary - 30% Likelihood

Temporary - 30% Likelihood during this time.

Wind
  • 010° at 10 KTS

Mar-26@
12:00 UTC

Mar-26 @ 12:00 UTC

Mar-26@
18:00 UTC

Mar-26 @ 18:00 UTC

PROB40 TEMPO 2612/2618 SHRA SCT025TCU

Temporary - 40% Likelihood

Temporary - 40% Likelihood during this time.

Conditions
Rain
Cloud Levels
  • Scattered at 2,500' AGL

Mar-26@
19:00 UTC

Mar-26 @ 19:00 UTC

Mar-27@
09:00 UTC

Mar-27 @ 09:00 UTC

BECMG 2619/2621 31010KT

Becoming

Becoming Conditions expected by Tue, Mar 26, 2019 @ 21:00 UTC

Wind
  • 310° at 10 KTS
Cloud Levels
  • Few at 2,500' AGL